Time,TemperatureF,DewpointF,PressureIn,WindDirection,WindDirectionDegrees,WindSpeedMPH,WindSpeedGustMPH,Humidity,HourlyPrecipIn,Conditions,Clouds,dailyrainin,SoftwareType,DateUTC
2013-02-02 00:00:00,45.7,40.2,30.13,NNW,338,0.2,0.9,81,0.00,,,0.00,WUHU216HW,2013-02-02 08:00:00,
2013-02-02 00:05:00,45.7,40.2,30.13,NNW,338,0.4,0.7,81,0.00,,,0.00,WUHU216HW,2013-02-02 08:05:00,
2013-02-02 00:10:00,45.7,40.6,30.13,NNW,338,0.0,0.7,82,0.00,,,0.00,WUHU216HW,2013-02-02 08:10:00,
2013-02-02 00:15:00,45.7,40.6,30.14,NNW,338,0.0,0.4,82,0.00,,,0.00,WUHU216HW,2013-02-02 08:15:00,
2013-02-02 00:20:00,45.5,40.4,30.13,NNW,338,0.0,0.4,82,0.00,,,0.00,WUHU216HW,2013-02-02 08:20:00,
2013-02-02 00:25:00,45.5,40.1,30.14,NNW,338,0.4,0.7,81,0.00,,,0.00,WUHU216HW,2013-02-02 08:25:00,
2013-02-02 00:30:00,45.5,40.1,30.14,NNW,338,0.0,0.7,81,0.00,,,0.00,WUHU216HW,2013-02-02 08:30:00,
2013-02-02 00:35:00,45.4,40.2,30.14,NNW,338,0.9,0.9,82,0.00,,,0.00,WUHU216HW,2013-02-02 08:35:00,
2013-02-02 00:41:00,45.0,39.9,30.14,North,0,0.4,0.9,82,0.00,,,0.00,WUHU216HW,2013-02-02 08:41:00,
2013-02-02 00:46:00,44.8,40.0,30.14,North,0,0.0,0.9,83,0.00,,,0.00,WUHU216HW,2013-02-02 08:46:00,
2013-02-02 00:51:00,44.8,40.0,30.14,North,0,0.4,0.4,83,0.00,,,0.00,WUHU216HW,2013-02-02 08:51:00,
2013-02-02 00:56:00,44.6,39.8,30.14,North,0,0.0,0.4,83,0.00,,,0.00,WUHU216HW,2013-02-02 08:56:00,
2013-02-02 01:01:00,44.6,40.2,30.14,North,0,0.2,0.4,84,0.00,,,0.00,WUHU216HW,2013-02-02 09:01:00,
2013-02-02 01:06:00,44.6,40.2,30.14,North,0,0.4,0.4,84,0.00,,,0.00,WUHU216HW,2013-02-02 09:06:00,
2013-02-02 01:11:00,44.6,40.2,30.14,North,0,0.0,0.7,84,0.00,,,0.00,WUHU216HW,2013-02-02 09:11:00,
2013-02-02 01:16:00,44.6,40.2,30.14,North,0,0.0,0.7,84,0.00,,,0.00,WUHU216HW,2013-02-02 09:16:00,
2013-02-02 01:21:00,44.6,40.2,30.14,North,0,0.0,0.2,84,0.00,,,0.00,WUHU216HW,2013-02-02 09:21:00,
2013-02-02 01:26:00,44.6,40.2,30.14,North,0,0.0,0.2,84,0.00,,,0.00,WUHU216HW,2013-02-02 09:26:00,
2013-02-02 01:31:00,44.6,40.2,30.14,North,0,0.0,0.2,84,0.00,,,0.00,WUHU216HW,2013-02-02 09:31:00,
2013-02-02 01:36:00,44.6,40.2,30.14,North,0,0.2,0.4,84,0.00,,,0.00,WUHU216HW,2013-02-02 09:36:00,
2013-02-02 01:41:00,44.6,40.2,30.14,North,0,0.2,0.4,84,0.00,,,0.00,WUHU216HW,2013-02-02 09:41:00,
2013-02-02 01:46:00,44.6,40.2,30.14,North,0,0.0,0.4,84,0.00,,,0.00,WUHU216HW,2013-02-02 09:46:00,
2013-02-02 01:51:00,44.6,40.2,30.14,North,0,0.0,0.4,84,0.00,,,0.00,WUHU216HW,2013-02-02 09:51:00,
2013-02-02 01:56:00,44.6,40.2,30.14,North,0,0.0,0.0,84,0.00,,,0.00,WUHU216HW,2013-02-02 09:56:00,
2013-02-02 02:01:00,44.5,40.0,30.15,North,0,0.0,0.0,84,0.00,,,0.00,WUHU216HW,2013-02-02 10:01:00,
2013-02-02 02:06:00,44.5,40.0,30.15,North,0,0.0,0.4,84,0.00,,,0.00,WUHU216HW,2013-02-02 10:06:00,
2013-02-02 02:11:00,44.3,39.8,30.14,North,0,0.4,0.4,84,0.00,,,0.00,WUHU216HW,2013-02-02 10:11:00,
2013-02-02 02:16:00,44.3,39.8,30.15,North,0,0.0,0.4,84,0.00,,,0.00,WUHU216HW,2013-02-02 10:16:00,
2013-02-02 02:21:00,44.3,39.8,30.15,North,0,0.0,0.4,84,0.00,,,0.00,WUHU216HW,2013-02-02 10:21:00,
2013-02-02 02:26:00,44.5,40.0,30.14,North,0,0.0,0.4,84,0.00,,,0.00,WUHU216HW,2013-02-02 10:26:00,
2013-02-02 02:31:00,44.5,40.0,30.15,North,0,0.0,0.4,84,0.00,,,0.00,WUHU216HW,2013-02-02 10:31:00,
2013-02-02 02:36:00,44.5,40.0,30.15,North,0,0.4,0.4,84,0.00,,,0.00,WUHU216HW,2013-02-02 10:36:00,
2013-02-02 02:41:00,44.3,40.1,30.14,North,0,0.7,1.1,85,0.00,,,0.00,WUHU216HW,2013-02-02 10:41:00,
2013-02-02 02:45:00,44.3,40.1,30.14,North,0,0.0,1.1,85,0.00,,,0.00,WUHU216HW,2013-02-02 10:45:00,
2013-02-02 02:51:00,44.3,40.1,30.14,North,0,0.0,0.7,85,0.00,,,0.00,WUHU216HW,2013-02-02 10:51:00,
2013-02-02 02:56:00,44.3,40.1,30.14,North,0,0.0,0.4,85,0.00,,,0.00,WUHU216HW,2013-02-02 10:56:00,
2013-02-02 03:01:00,44.3,40.1,30.14,North,0,0.0,0.4,85,0.00,,,0.00,WUHU216HW,2013-02-02 11:01:00,
2013-02-02 03:05:00,44.3,40.1,30.14,North,0,0.0,0.0,85,0.00,,,0.00,WUHU216HW,2013-02-02 11:05:00,
2013-02-02 03:11:00,44.3,40.1,30.14,North,0,0.0,0.2,85,0.00,,,0.00,WUHU216HW,2013-02-02 11:11:00,
2013-02-02 03:16:00,44.3,40.1,30.14,North,0,0.4,0.4,85,0.00,,,0.00,WUHU216HW,2013-02-02 11:16:00,
2013-02-02 03:21:00,44.3,40.1,30.14,North,0,0.0,0.7,85,0.00,,,0.00,WUHU216HW,2013-02-02 11:21:00,
2013-02-02 03:26:00,44.3,40.1,30.14,North,0,0.0,0.7,85,0.00,,,0.00,WUHU216HW,2013-02-02 11:26:00,
2013-02-02 03:30:00,44.3,40.1,30.14,North,0,0.4,0.7,85,0.00,,,0.00,WUHU216HW,2013-02-02 11:30:00,
2013-02-02 03:35:00,44.5,40.2,30.14,North,0,0.2,0.7,85,0.00,,,0.00,WUHU216HW,2013-02-02 11:35:00,
2013-02-02 03:40:00,44.5,40.2,30.14,North,0,0.0,0.4,85,0.00,,,0.00,WUHU216HW,2013-02-02 11:40:00,
2013-02-02 03:45:00,44.6,40.4,30.14,North,0,0.0,0.4,85,0.00,,,0.00,WUHU216HW,2013-02-02 11:45:00,
2013-02-02 03:50:00,44.6,40.4,30.14,North,0,0.0,0.4,85,0.00,,,0.00,WUHU216HW,2013-02-02 11:50:00,
2013-02-02 03:55:00,44.6,40.4,30.14,North,0,0.2,0.2,85,0.00,,,0.00,WUHU216HW,2013-02-02 11:55:00,
2013-02-02 04:00:00,44.6,40.4,30.14,North,0,0.0,0.4,85,0.00,,,0.00,WUHU216HW,2013-02-02 12:00:00,
2013-02-02 04:05:00,44.6,40.4,30.14,North,0,0.0,0.4,85,0.00,,,0.00,WUHU216HW,2013-02-02 12:05:00,
2013-02-02 04:11:00,44.8,40.6,30.14,North,0,0.0,0.2,85,0.00,,,0.00,WUHU216HW,2013-02-02 12:11:00,
2013-02-02 04:16:00,45.0,40.8,30.14,North,0,0.0,0.2,85,0.00,,,0.00,WUHU216HW,2013-02-02 12:16:00,
2013-02-02 04:21:00,45.0,40.8,30.14,North,0,0.0,0.2,85,0.00,,,0.00,WUHU216HW,2013-02-02 12:21:00,
2013-02-02 04:26:00,45.0,40.8,30.14,North,0,0.4,0.7,85,0.00,,,0.00,WUHU216HW,2013-02-02 12:26:00,
2013-02-02 04:31:00,45.0,40.8,30.14,North,0,0.7,1.1,85,0.00,,,0.00,WUHU216HW,2013-02-02 12:31:00,
2013-02-02 04:36:00,44.8,40.6,30.14,North,0,0.4,1.1,85,0.00,,,0.00,WUHU216HW,2013-02-02 12:36:00,
2013-02-02 04:41:00,44.8,40.6,30.14,North,0,0.0,0.7,85,0.00,,,0.00,WUHU216HW,2013-02-02 12:41:00,
2013-02-02 04:46:00,44.6,40.4,30.14,North,0,0.0,0.4,85,0.00,,,0.00,WUHU216HW,2013-02-02 12:46:00,
2013-02-02 04:51:00,44.5,40.2,30.14,North,0,0.0,0.7,85,0.00,,,0.00,WUHU216HW,2013-02-02 12:51:00,
2013-02-02 04:56:00,44.3,39.8,30.13,North,0,0.0,0.7,84,0.00,,,0.00,WUHU216HW,2013-02-02 12:56:00,
2013-02-02 05:01:00,44.1,39.6,30.13,North,0,0.0,0.4,84,0.00,,,0.00,WUHU216HW,2013-02-02 13:01:00,
2013-02-02 05:05:00,44.1,39.9,30.14,NNW,338,0.0,0.9,85,0.00,,,0.00,WUHU216HW,2013-02-02 13:05:00,
2013-02-02 05:10:00,44.1,39.9,30.14,NE,45,0.2,0.9,85,0.00,,,0.00,WUHU216HW,2013-02-02 13:10:00,
2013-02-02 05:15:00,43.9,39.4,30.14,NE,45,0.0,0.9,84,0.00,,,0.00,WUHU216HW,2013-02-02 13:15:00,
2013-02-02 05:20:00,43.9,39.4,30.14,NE,45,0.0,0.2,84,0.00,,,0.00,WUHU216HW,2013-02-02 13:20:00,
2013-02-02 05:26:00,43.9,39.4,30.14,NE,45,0.0,0.0,84,0.00,,,0.00,WUHU216HW,2013-02-02 13:26:00,
2013-02-02 05:31:00,43.7,39.3,30.14,NE,45,0.0,0.0,84,0.00,,,0.00,WUHU216HW,2013-02-02 13:31:00,
2013-02-02 05:36:00,43.7,39.5,30.14,NE,45,0.4,0.4,85,0.00,,,0.00,WUHU216HW,2013-02-02 13:36:00,
2013-02-02 05:41:00,43.7,39.5,30.14,NE,45,0.0,0.9,85,0.00,,,0.00,WUHU216HW,2013-02-02 13:41:00,
2013-02-02 05:46:00,43.6,39.3,30.14,NE,45,0.0,0.9,85,0.00,,,0.00,WUHU216HW,2013-02-02 13:46:00,
2013-02-02 05:51:00,43.7,39.5,30.14,NE,45,0.0,0.0,85,0.00,,,0.00,WUHU216HW,2013-02-02 13:51:00,
2013-02-02 05:55:00,43.6,39.3,30.14,NE,45,0.0,0.0,85,0.00,,,0.00,WUHU216HW,2013-02-02 13:55:00,
2013-02-02 06:00:00,43.6,39.3,30.14,NE,45,0.0,0.0,85,0.00,,,0.00,WUHU216HW,2013-02-02 14:00:00,
2013-02-02 06:05:00,43.6,39.3,30.14,NE,45,0.0,0.0,85,0.00,,,0.00,WUHU216HW,2013-02-02 14:05:00,
2013-02-02 06:10:00,43.6,39.3,30.14,NE,45,0.0,0.0,85,0.00,,,0.00,WUHU216HW,2013-02-02 14:10:00,
2013-02-02 06:15:00,43.6,39.3,30.13,NE,45,0.0,0.4,85,0.00,,,0.00,WUHU216HW,2013-02-02 14:15:00,
2013-02-02 06:20:00,43.6,39.3,30.14,NE,45,0.0,0.4,85,0.00,,,0.00,WUHU216HW,2013-02-02 14:20:00,
2013-02-02 06:25:00,43.6,39.3,30.14,NE,45,0.0,0.0,85,0.00,,,0.00,WUHU216HW,2013-02-02 14:25:00,
2013-02-02 06:30:00,43.6,39.3,30.14,NE,45,0.0,0.2,85,0.00,,,0.00,WUHU216HW,2013-02-02 14:30:00,
2013-02-02 06:36:00,43.6,39.3,30.14,NE,45,0.0,0.2,85,0.00,,,0.00,WUHU216HW,2013-02-02 14:36:00,
2013-02-02 06:40:00,43.6,39.3,30.14,NE,45,0.0,0.2,85,0.00,,,0.00,WUHU216HW,2013-02-02 14:40:00,
2013-02-02 06:45:00,43.6,39.3,30.14,NE,45,0.0,0.0,85,0.00,,,0.00,WUHU216HW,2013-02-02 14:45:00,
2013-02-02 06:50:00,43.6,39.3,30.14,NE,45,0.0,0.0,85,0.00,,,0.00,WUHU216HW,2013-02-02 14:50:00,
2013-02-02 06:55:00,43.6,39.3,30.14,NE,45,0.0,0.2,85,0.00,,,0.00,WUHU216HW,2013-02-02 14:55:00,
2013-02-02 07:00:00,43.6,39.3,30.14,NE,45,0.0,0.2,85,0.00,,,0.00,WUHU216HW,2013-02-02 15:00:00,
2013-02-02 07:05:00,43.6,39.3,30.14,NE,45,0.0,0.0,85,0.00,,,0.00,WUHU216HW,2013-02-02 15:05:00,
2013-02-02 07:10:00,43.6,39.3,30.15,NE,45,0.0,0.0,85,0.00,,,0.00,WUHU216HW,2013-02-02 15:10:00,
2013-02-02 07:15:00,43.7,39.5,30.15,NE,45,0.0,0.2,85,0.00,,,0.00,WUHU216HW,2013-02-02 15:15:00,
2013-02-02 07:20:00,43.7,39.5,30.15,NE,45,0.0,0.2,85,0.00,,,0.00,WUHU216HW,2013-02-02 15:20:00,
2013-02-02 07:25:00,43.6,39.3,30.15,NE,45,0.0,0.2,85,0.00,,,0.00,WUHU216HW,2013-02-02 15:25:00,
2013-02-02 07:30:00,43.6,39.3,30.15,NE,45,0.4,0.4,85,0.00,,,0.00,WUHU216HW,2013-02-02 15:30:00,
2013-02-02 07:35:00,43.6,39.3,30.16,NE,45,0.0,0.4,85,0.00,,,0.00,WUHU216HW,2013-02-02 15:35:00,
2013-02-02 07:40:00,43.6,39.3,30.16,NE,45,0.0,0.2,85,0.00,,,0.00,WUHU216HW,2013-02-02 15:40:00,
2013-02-02 07:45:00,43.6,39.3,30.16,NE,45,0.0,0.2,85,0.00,,,0.00,WUHU216HW,2013-02-02 15:45:00,
2013-02-02 07:51:00,43.7,39.5,30.16,NE,45,0.0,0.2,85,0.00,,,0.00,WUHU216HW,2013-02-02 15:51:00,
2013-02-02 07:56:00,43.7,39.5,30.16,NE,45,0.0,0.2,85,0.00,,,0.00,WUHU216HW,2013-02-02 15:56:00,
2013-02-02 08:01:00,43.9,39.7,30.17,NE,45,0.0,0.0,85,0.00,,,0.00,WUHU216HW,2013-02-02 16:01:00,
2013-02-02 08:06:00,44.1,40.1,30.17,NE,45,0.0,0.0,86,0.00,,,0.00,WUHU216HW,2013-02-02 16:06:00,
2013-02-02 08:11:00,44.3,40.1,30.17,NE,45,0.0,0.0,85,0.00,,,0.00,WUHU216HW,2013-02-02 16:11:00,
2013-02-02 08:16:00,44.3,40.3,30.17,NE,45,0.0,0.0,86,0.00,,,0.00,WUHU216HW,2013-02-02 16:16:00,
2013-02-02 08:21:00,44.5,40.5,30.17,NE,45,0.0,0.0,86,0.00,,,0.00,WUHU216HW,2013-02-02 16:21:00,
2013-02-02 08:25:00,44.6,40.7,30.17,NE,45,0.0,0.4,86,0.00,,,0.00,WUHU216HW,2013-02-02 16:25:00,
2013-02-02 08:31:00,44.8,40.9,30.17,NE,45,0.4,0.4,86,0.00,,,0.00,WUHU216HW,2013-02-02 16:31:00,
2013-02-02 08:36:00,45.2,41.2,30.17,NE,45,0.4,0.4,86,0.00,,,0.00,WUHU216HW,2013-02-02 16:36:00,
2013-02-02 08:41:00,45.5,42.0,30.17,NE,45,0.0,0.4,87,0.00,,,0.00,WUHU216HW,2013-02-02 16:41:00,
2013-02-02 08:46:00,45.7,42.1,30.17,NE,45,0.0,0.4,87,0.00,,,0.00,WUHU216HW,2013-02-02 16:46:00,
2013-02-02 08:51:00,46.1,42.5,30.18,NE,45,0.0,0.0,87,0.00,,,0.00,WUHU216HW,2013-02-02 16:51:00,
2013-02-02 08:56:00,46.3,42.7,30.18,NE,45,0.0,0.0,87,0.00,,,0.00,WUHU216HW,2013-02-02 16:56:00,
2013-02-02 09:01:00,46.6,43.0,30.18,NE,45,0.0,0.0,87,0.00,,,0.00,WUHU216HW,2013-02-02 17:01:00,
2013-02-02 09:05:00,46.8,43.2,30.18,NE,45,0.0,0.0,87,0.00,,,0.00,WUHU216HW,2013-02-02 17:05:00,
2013-02-02 09:10:00,47.2,43.6,30.18,WSW,248,0.7,1.6,87,0.00,,,0.00,WUHU216HW,2013-02-02 17:10:00,
2013-02-02 09:15:00,47.3,43.7,30.18,WSW,248,0.2,1.6,87,0.00,,,0.00,WUHU216HW,2013-02-02 17:15:00,
2013-02-02 09:20:00,47.7,44.0,30.18,WSW,248,0.7,1.1,87,0.00,,,0.00,WUHU216HW,2013-02-02 17:20:00,
2013-02-02 09:26:00,47.9,43.9,30.18,WSW,248,0.0,1.1,86,0.00,,,0.00,WUHU216HW,2013-02-02 17:26:00,
2013-02-02 09:31:00,48.1,44.1,30.18,WSW,248,0.0,1.1,86,0.00,,,0.00,WUHU216HW,2013-02-02 17:31:00,
2013-02-02 09:36:00,48.2,44.3,30.18,WSW,248,0.0,0.2,86,0.00,,,0.00,WUHU216HW,2013-02-02 17:36:00,
2013-02-02 09:41:00,48.6,44.3,30.19,WSW,248,0.7,0.7,85,0.00,,,0.00,WUHU216HW,2013-02-02 17:41:00,
2013-02-02 09:46:00,49.0,44.7,30.18,WSW,248,0.0,0.7,85,0.00,,,0.00,WUHU216HW,2013-02-02 17:46:00,
2013-02-02 09:51:00,49.3,44.9,30.18,WSW,248,0.7,0.7,85,0.00,,,0.00,WUHU216HW,2013-02-02 17:51:00,
2013-02-02 09:56:00,49.5,45.1,30.19,SW,225,0.9,1.6,85,0.00,,,0.00,WUHU216HW,2013-02-02 17:56:00,
2013-02-02 10:01:00,49.9,45.5,30.19,WSW,248,0.9,1.6,85,0.00,,,0.00,WUHU216HW,2013-02-02 18:01:00,
2013-02-02 10:06:00,50.0,45.6,30.19,WSW,248,0.7,1.1,85,0.00,,,0.00,WUHU216HW,2013-02-02 18:06:00,
2013-02-02 10:11:00,50.4,46.0,30.18,WSW,248,0.4,0.9,85,0.00,,,0.00,WUHU216HW,2013-02-02 18:11:00,
2013-02-02 10:16:00,50.8,46.1,30.19,WSW,248,0.2,0.9,84,0.00,,,0.00,WUHU216HW,2013-02-02 18:16:00,
2013-02-02 10:21:00,51.1,46.5,30.19,WSW,248,0.7,0.9,84,0.00,,,0.00,WUHU216HW,2013-02-02 18:21:00,
2013-02-02 10:26:00,51.5,46.4,30.19,WSW,248,0.4,0.9,83,0.00,,,0.00,WUHU216HW,2013-02-02 18:26:00,
2013-02-02 10:31:00,51.5,46.4,30.19,WSW,248,0.7,1.1,83,0.00,,,0.00,WUHU216HW,2013-02-02 18:31:00,
2013-02-02 10:36:00,51.8,46.8,30.19,WSW,248,0.0,1.1,83,0.00,,,0.00,WUHU216HW,2013-02-02 18:36:00,
2013-02-02 10:41:00,52.0,46.7,30.19,WSW,248,0.7,0.7,82,0.00,,,0.00,WUHU216HW,2013-02-02 18:41:00,
2013-02-02 10:46:00,52.2,46.9,30.19,WSW,248,0.4,0.7,82,0.00,,,0.00,WUHU216HW,2013-02-02 18:46:00,
2013-02-02 10:51:00,52.6,47.3,30.19,WSW,248,0.2,0.7,82,0.00,,,0.00,WUHU216HW,2013-02-02 18:51:00,
2013-02-02 10:56:00,52.9,47.3,30.19,WSW,248,1.1,1.1,81,0.00,,,0.00,WUHU216HW,2013-02-02 18:56:00,
2013-02-02 11:01:00,53.5,47.8,30.19,WSW,248,0.2,1.1,81,0.00,,,0.00,WUHU216HW,2013-02-02 19:01:00,
2013-02-02 11:06:00,54.2,48.2,30.19,SSW,203,1.1,1.1,80,0.00,,,0.00,WUHU216HW,2013-02-02 19:06:00,
2013-02-02 11:11:00,54.7,48.3,30.18,South,180,1.1,1.3,79,0.00,,,0.00,WUHU216HW,2013-02-02 19:11:00,
2013-02-02 11:16:00,55.1,48.3,30.18,West,270,0.4,1.3,78,0.00,,,0.00,WUHU216HW,2013-02-02 19:16:00,
2013-02-02 11:21:00,55.6,49.1,30.18,West,270,0.9,1.8,79,0.00,,,0.00,WUHU216HW,2013-02-02 19:21:00,
2013-02-02 11:26:00,56.2,49.0,30.18,NW,315,1.1,1.8,77,0.00,,,0.00,WUHU216HW,2013-02-02 19:26:00,
2013-02-02 11:31:00,56.5,49.0,30.18,NW,315,0.0,1.8,76,0.00,,,0.00,WUHU216HW,2013-02-02 19:31:00,
2013-02-02 11:36:00,57.1,49.1,30.18,NW,315,0.0,1.8,75,0.00,,,0.00,WUHU216HW,2013-02-02 19:36:00,
2013-02-02 11:41:00,57.2,49.3,30.17,SW,225,0.9,1.1,75,0.00,,,0.00,WUHU216HW,2013-02-02 19:41:00,
2013-02-02 11:46:00,57.8,49.1,30.17,SW,225,0.0,1.8,73,0.00,,,0.00,WUHU216HW,2013-02-02 19:46:00,
2013-02-02 11:51:00,58.1,49.5,30.17,WSW,248,1.3,2.2,73,0.00,,,0.00,WUHU216HW,2013-02-02 19:51:00,
2013-02-02 11:56:00,58.5,49.9,30.17,SSW,203,1.1,2.5,73,0.00,,,0.00,WUHU216HW,2013-02-02 19:56:00,
2013-02-02 12:01:00,58.7,49.7,30.17,SW,225,2.5,2.5,72,0.00,,,0.00,WUHU216HW,2013-02-02 20:01:00,
2013-02-02 12:06:00,58.9,49.9,30.17,SSW,203,2.5,2.7,72,0.00,,,0.00,WUHU216HW,2013-02-02 20:06:00,
2013-02-02 12:11:00,59.0,49.7,30.17,West,270,2.5,2.7,71,0.00,,,0.00,WUHU216HW,2013-02-02 20:11:00,
2013-02-02 12:16:00,59.4,49.7,30.17,West,270,2.2,3.8,70,0.00,,,0.00,WUHU216HW,2013-02-02 20:16:00,
2013-02-02 12:21:00,59.4,49.7,30.16,West,270,2.5,3.8,70,0.00,,,0.00,WUHU216HW,2013-02-02 20:21:00,
2013-02-02 12:26:00,59.4,49.7,30.16,WNW,293,4.0,4.5,70,0.00,,,0.00,WUHU216HW,2013-02-02 20:26:00,
2013-02-02 12:31:00,59.4,49.2,30.16,West,270,2.9,4.5,69,0.00,,,0.00,WUHU216HW,2013-02-02 20:31:00,
2013-02-02 12:36:00,59.6,49.4,30.16,WNW,293,2.7,4.0,69,0.00,,,0.00,WUHU216HW,2013-02-02 20:36:00,
2013-02-02 12:41:00,59.6,49.4,30.16,WSW,248,1.1,3.4,69,0.00,,,0.00,WUHU216HW,2013-02-02 20:41:00,
2013-02-02 12:46:00,59.8,49.6,30.16,West,270,0.2,2.5,69,0.00,,,0.00,WUHU216HW,2013-02-02 20:46:00,
2013-02-02 12:51:00,60.1,49.6,30.15,SSW,203,0.7,2.5,68,0.00,,,0.00,WUHU216HW,2013-02-02 20:51:00,
2013-02-02 12:56:00,60.5,50.0,30.15,WSW,248,1.6,2.2,68,0.00,,,0.00,WUHU216HW,2013-02-02 20:56:00,
2013-02-02 13:01:00,60.8,49.9,30.15,West,270,1.1,2.2,67,0.00,,,0.00,WUHU216HW,2013-02-02 21:01:00,
2013-02-02 13:06:00,61.2,50.2,30.14,NNW,338,1.1,2.7,67,0.00,,,0.00,WUHU216HW,2013-02-02 21:06:00,
2013-02-02 13:11:00,61.4,49.5,30.14,NNW,338,1.6,2.7,65,0.00,,,0.00,WUHU216HW,2013-02-02 21:11:00,
2013-02-02 13:16:00,61.6,49.7,30.14,NW,315,1.8,2.2,65,0.00,,,0.00,WUHU216HW,2013-02-02 21:16:00,
2013-02-02 13:20:00,61.7,49.9,30.14,NNE,23,1.8,2.2,65,0.00,,,0.00,WUHU216HW,2013-02-02 21:20:00,
2013-02-02 13:25:00,61.9,49.6,30.14,NNW,338,1.6,2.5,64,0.00,,,0.00,WUHU216HW,2013-02-02 21:25:00,
2013-02-02 13:30:00,62.3,50.3,30.14,West,270,1.8,2.5,65,0.00,,,0.00,WUHU216HW,2013-02-02 21:30:00,
2013-02-02 13:35:00,62.1,49.8,30.14,NW,315,0.4,2.2,64,0.00,,,0.00,WUHU216HW,2013-02-02 21:35:00,
2013-02-02 13:40:00,62.3,50.0,30.13,NNW,338,0.2,2.2,64,0.00,,,0.00,WUHU216HW,2013-02-02 21:40:00,
2013-02-02 13:45:00,62.3,49.5,30.13,West,270,2.7,2.7,63,0.00,,,0.00,WUHU216HW,2013-02-02 21:45:00,
2013-02-02 13:50:00,62.3,50.0,30.13,West,270,3.1,3.1,64,0.00,,,0.00,WUHU216HW,2013-02-02 21:50:00,
2013-02-02 13:55:00,62.3,50.0,30.12,NNW,338,0.0,3.1,64,0.00,,,0.00,WUHU216HW,2013-02-02 21:55:00,
2013-02-02 14:00:00,62.3,50.0,30.12,NW,315,0.7,3.1,64,0.00,,,0.00,WUHU216HW,2013-02-02 22:00:00,
2013-02-02 14:05:00,62.5,50.1,30.12,SW,225,1.8,1.8,64,0.00,,,0.00,WUHU216HW,2013-02-02 22:05:00,
2013-02-02 14:10:00,62.6,50.2,30.12,WNW,293,1.1,1.8,64,0.00,,,0.00,WUHU216HW,2013-02-02 22:10:00,
2013-02-02 14:15:00,62.8,50.4,30.12,NNW,338,0.4,1.8,64,0.00,,,0.00,WUHU216HW,2013-02-02 22:15:00,
2013-02-02 14:20:00,63.0,50.2,30.12,NW,315,2.0,3.1,63,0.00,,,0.00,WUHU216HW,2013-02-02 22:20:00,
2013-02-02 14:25:00,63.0,49.8,30.12,North,0,0.7,3.1,62,0.00,,,0.00,WUHU216HW,2013-02-02 22:25:00,
2013-02-02 14:30:00,63.0,49.8,30.12,WSW,248,1.1,2.2,62,0.00,,,0.00,WUHU216HW,2013-02-02 22:30:00,
2013-02-02 14:35:00,63.0,49.8,30.12,West,270,2.7,3.6,62,0.00,,,0.00,WUHU216HW,2013-02-02 22:35:00,
2013-02-02 14:40:00,63.0,49.8,30.11,NW,315,0.9,3.6,62,0.00,,,0.00,WUHU216HW,2013-02-02 22:40:00,
2013-02-02 14:45:00,63.0,50.2,30.11,WNW,293,2.0,3.4,63,0.00,,,0.00,WUHU216HW,2013-02-02 22:45:00,
2013-02-02 14:50:00,62.8,50.1,30.11,WSW,248,1.1,3.4,63,0.00,,,0.00,WUHU216HW,2013-02-02 22:50:00,
2013-02-02 14:55:00,62.8,50.1,30.11,WNW,293,0.4,2.5,63,0.00,,,0.00,WUHU216HW,2013-02-02 22:55:00,
2013-02-02 15:00:00,63.0,50.2,30.11,WNW,293,3.4,4.0,63,0.00,,,0.00,WUHU216HW,2013-02-02 23:00:00,
2013-02-02 15:05:00,63.0,50.2,30.11,NW,315,0.4,4.0,63,0.00,,,0.00,WUHU216HW,2013-02-02 23:05:00,
2013-02-02 15:10:00,63.2,50.0,30.11,West,270,2.9,3.4,62,0.00,,,0.00,WUHU216HW,2013-02-02 23:10:00,
2013-02-02 15:15:00,63.4,50.5,30.11,SW,225,2.0,2.9,63,0.00,,,0.00,WUHU216HW,2013-02-02 23:15:00,
2013-02-02 15:20:00,63.4,50.5,30.11,WSW,248,1.3,2.9,63,0.00,,,0.00,WUHU216HW,2013-02-02 23:20:00,
2013-02-02 15:25:00,63.5,50.2,30.12,NW,315,0.9,3.1,62,0.00,,,0.00,WUHU216HW,2013-02-02 23:25:00,
2013-02-02 15:30:00,63.5,50.7,30.12,West,270,1.8,3.6,63,0.00,,,0.00,WUHU216HW,2013-02-02 23:30:00,
2013-02-02 15:35:00,63.5,50.2,30.11,West,270,3.1,3.6,62,0.00,,,0.00,WUHU216HW,2013-02-02 23:35:00,
2013-02-02 15:40:00,63.5,50.7,30.11,West,270,3.4,3.4,63,0.00,,,0.00,WUHU216HW,2013-02-02 23:40:00,
2013-02-02 15:45:00,63.7,50.4,30.11,West,270,2.0,3.4,62,0.00,,,0.00,WUHU216HW,2013-02-02 23:45:00,
2013-02-02 15:50:00,63.7,50.4,30.11,WNW,293,0.7,3.6,62,0.00,,,0.00,WUHU216HW,2013-02-02 23:50:00,
2013-02-02 15:55:00,63.7,50.4,30.11,West,270,1.8,3.6,62,0.00,,,0.00,WUHU216HW,2013-02-02 23:55:00,
2013-02-02 16:00:00,63.7,50.4,30.11,WNW,293,0.4,2.5,62,0.00,,,0.00,WUHU216HW,2013-02-03 00:00:00,
2013-02-02 16:05:00,63.7,50.4,30.11,WNW,293,1.8,2.5,62,0.00,,,0.00,WUHU216HW,2013-02-03 00:05:00,
2013-02-02 16:10:00,63.5,50.2,30.11,West,270,1.3,3.1,62,0.00,,,0.00,WUHU216HW,2013-02-03 00:10:00,
2013-02-02 16:15:00,63.4,50.1,30.10,West,270,1.3,3.1,62,0.00,,,0.00,WUHU216HW,2013-02-03 00:15:00,
2013-02-02 16:20:00,63.4,50.1,30.11,WNW,293,1.1,2.7,62,0.00,,,0.00,WUHU216HW,2013-02-03 00:20:00,
2013-02-02 16:25:00,63.2,50.0,30.11,WNW,293,2.2,2.7,62,0.00,,,0.00,WUHU216HW,2013-02-03 00:25:00,
2013-02-02 16:30:00,63.0,49.8,30.11,West,270,1.3,2.2,62,0.00,,,0.00,WUHU216HW,2013-02-03 00:30:00,
2013-02-02 16:35:00,63.0,49.8,30.11,West,270,1.1,2.2,62,0.00,,,0.00,WUHU216HW,2013-02-03 00:35:00,
2013-02-02 16:40:00,62.8,49.6,30.11,WNW,293,1.1,2.0,62,0.00,,,0.00,WUHU216HW,2013-02-03 00:40:00,
2013-02-02 16:45:00,62.6,49.4,30.11,WNW,293,1.1,2.0,62,0.00,,,0.00,WUHU216HW,2013-02-03 00:45:00,
2013-02-02 16:50:00,62.5,49.7,30.11,West,270,1.3,1.8,63,0.00,,,0.00,WUHU216HW,2013-02-03 00:50:00,
2013-02-02 16:55:00,62.3,49.5,30.11,West,270,0.9,1.6,63,0.00,,,0.00,WUHU216HW,2013-02-03 00:55:00,
2013-02-02 17:00:00,61.9,49.2,30.11,WNW,293,0.7,1.6,63,0.00,,,0.00,WUHU216HW,2013-02-03 01:00:00,
2013-02-02 17:05:00,61.7,49.4,30.11,WNW,293,0.2,0.9,64,0.00,,,0.00,WUHU216HW,2013-02-03 01:05:00,
2013-02-02 17:10:00,61.6,49.3,30.11,WNW,293,0.0,0.9,64,0.00,,,0.00,WUHU216HW,2013-02-03 01:10:00,
2013-02-02 17:15:00,61.2,49.0,30.11,WNW,293,0.0,0.7,64,0.00,,,0.00,WUHU216HW,2013-02-03 01:15:00,
2013-02-02 17:20:00,60.8,49.1,30.11,WNW,293,0.0,0.2,65,0.00,,,0.00,WUHU216HW,2013-02-03 01:20:00,
2013-02-02 17:25:00,60.7,48.9,30.11,WNW,293,0.0,0.0,65,0.00,,,0.00,WUHU216HW,2013-02-03 01:25:00,
2013-02-02 17:30:00,60.3,48.5,30.11,WNW,293,0.0,0.0,65,0.00,,,0.00,WUHU216HW,2013-02-03 01:30:00,
2013-02-02 17:35:00,59.9,47.7,30.11,WNW,293,0.0,0.0,64,0.00,,,0.00,WUHU216HW,2013-02-03 01:35:00,
2013-02-02 17:40:00,59.6,47.8,30.11,WNW,293,0.0,0.0,65,0.00,,,0.00,WUHU216HW,2013-02-03 01:40:00,
2013-02-02 17:45:00,59.4,47.6,30.11,WNW,293,0.0,0.0,65,0.00,,,0.00,WUHU216HW,2013-02-03 01:45:00,
2013-02-02 17:50:00,59.0,47.7,30.11,WNW,293,0.0,0.0,66,0.00,,,0.00,WUHU216HW,2013-02-03 01:50:00,
2013-02-02 17:55:00,58.7,47.4,30.12,WNW,293,0.0,0.0,66,0.00,,,0.00,WUHU216HW,2013-02-03 01:55:00,
2013-02-02 18:00:00,58.3,47.3,30.12,WNW,293,0.0,0.0,67,0.00,,,0.00,WUHU216HW,2013-02-03 02:00:00,
2013-02-02 18:05:00,58.0,47.1,30.12,WNW,293,0.0,0.0,67,0.00,,,0.00,WUHU216HW,2013-02-03 02:05:00,
2013-02-02 18:10:00,57.8,47.3,30.13,WNW,293,0.0,0.0,68,0.00,,,0.00,WUHU216HW,2013-02-03 02:10:00,
2013-02-02 18:15:00,57.4,46.9,30.13,WNW,293,0.0,0.0,68,0.00,,,0.00,WUHU216HW,2013-02-03 02:15:00,
2013-02-02 18:20:00,57.1,46.5,30.13,WNW,293,0.0,0.0,68,0.00,,,0.00,WUHU216HW,2013-02-03 02:20:00,
2013-02-02 18:25:00,56.7,46.6,30.13,WNW,293,0.0,0.0,69,0.00,,,0.00,WUHU216HW,2013-02-03 02:25:00,
2013-02-02 18:30:00,56.3,46.3,30.13,WNW,293,0.0,0.0,69,0.00,,,0.00,WUHU216HW,2013-02-03 02:30:00,
2013-02-02 18:35:00,56.0,46.0,30.13,WNW,293,0.0,0.0,69,0.00,,,0.00,WUHU216HW,2013-02-03 02:35:00,
2013-02-02 18:40:00,55.6,45.6,30.13,WNW,293,0.0,0.0,69,0.00,,,0.00,WUHU216HW,2013-02-03 02:40:00,
2013-02-02 18:45:00,55.4,45.9,30.13,WNW,293,0.0,0.0,70,0.00,,,0.00,WUHU216HW,2013-02-03 02:45:00,
2013-02-02 18:50:00,55.3,45.7,30.13,WNW,293,0.0,0.0,70,0.00,,,0.00,WUHU216HW,2013-02-03 02:50:00,
2013-02-02 18:55:00,55.1,45.9,30.13,WNW,293,0.0,0.2,71,0.00,,,0.00,WUHU216HW,2013-02-03 02:55:00,
2013-02-02 19:00:00,54.7,45.6,30.13,WNW,293,0.0,0.2,71,0.00,,,0.00,WUHU216HW,2013-02-03 03:00:00,
2013-02-02 19:05:00,54.4,45.6,30.13,WNW,293,0.0,0.0,72,0.00,,,0.00,WUHU216HW,2013-02-03 03:05:00,
2013-02-02 19:10:00,54.0,45.6,30.13,WNW,293,0.4,0.4,73,0.00,,,0.00,WUHU216HW,2013-02-03 03:10:00,
2013-02-02 19:15:00,53.6,45.5,30.13,NW,315,0.4,1.1,74,0.00,,,0.00,WUHU216HW,2013-02-03 03:15:00,
2013-02-02 19:20:00,52.9,44.8,30.13,NW,315,0.9,1.1,74,0.00,,,0.00,WUHU216HW,2013-02-03 03:20:00,
2013-02-02 19:25:00,52.6,44.9,30.12,NW,315,0.0,1.1,75,0.00,,,0.00,WUHU216HW,2013-02-03 03:25:00,
2013-02-02 19:30:00,52.2,44.6,30.12,NW,315,0.0,0.9,75,0.00,,,0.00,WUHU216HW,2013-02-03 03:30:00,
2013-02-02 19:35:00,51.8,44.2,30.12,NW,315,0.0,0.4,75,0.00,,,0.00,WUHU216HW,2013-02-03 03:35:00,
2013-02-02 19:40:00,51.8,44.2,30.13,NW,315,0.0,0.0,75,0.00,,,0.00,WUHU216HW,2013-02-03 03:40:00,
2013-02-02 19:45:00,51.7,44.4,30.13,NW,315,0.0,0.0,76,0.00,,,0.00,WUHU216HW,2013-02-03 03:45:00,
2013-02-02 19:50:00,51.5,44.2,30.12,SE,135,0.4,1.3,76,0.00,,,0.00,WUHU216HW,2013-02-03 03:50:00,
2013-02-02 19:55:00,51.5,44.2,30.12,SE,135,0.2,1.3,76,0.00,,,0.00,WUHU216HW,2013-02-03 03:55:00,
2013-02-02 20:00:00,51.5,44.2,30.13,SE,135,0.0,0.7,76,0.00,,,0.00,WUHU216HW,2013-02-03 04:00:00,
2013-02-02 20:05:00,51.5,44.2,30.13,SE,135,0.0,0.2,76,0.00,,,0.00,WUHU216HW,2013-02-03 04:05:00,
2013-02-02 20:10:00,51.3,44.4,30.13,SE,135,0.7,0.9,77,0.00,,,0.00,WUHU216HW,2013-02-03 04:10:00,
2013-02-02 20:15:00,50.8,44.1,30.13,SE,135,0.9,0.9,78,0.00,,,0.00,WUHU216HW,2013-02-03 04:15:00,
2013-02-02 20:20:00,50.4,43.7,30.12,SE,135,0.0,0.9,78,0.00,,,0.00,WUHU216HW,2013-02-03 04:20:00,
2013-02-02 20:25:00,50.0,43.4,30.13,SE,135,0.0,0.9,78,0.00,,,0.00,WUHU216HW,2013-02-03 04:25:00,
2013-02-02 20:30:00,49.9,43.6,30.12,SE,135,0.0,0.4,79,0.00,,,0.00,WUHU216HW,2013-02-03 04:30:00,
2013-02-02 20:35:00,49.5,43.2,30.13,SE,135,0.0,0.0,79,0.00,,,0.00,WUHU216HW,2013-02-03 04:35:00,
2013-02-02 20:40:00,49.3,43.0,30.12,SE,135,0.0,0.0,79,0.00,,,0.00,WUHU216HW,2013-02-03 04:40:00,
2013-02-02 20:45:00,49.3,43.0,30.12,SE,135,0.0,0.0,79,0.00,,,0.00,WUHU216HW,2013-02-03 04:45:00,
2013-02-02 20:50:00,49.1,42.8,30.12,SE,135,0.2,0.4,79,0.00,,,0.00,WUHU216HW,2013-02-03 04:50:00,
2013-02-02 20:55:00,49.0,42.7,30.12,SE,135,0.0,0.4,79,0.00,,,0.00,WUHU216HW,2013-02-03 04:55:00,
2013-02-02 21:00:00,48.8,42.5,30.12,SE,135,0.0,0.4,79,0.00,,,0.00,WUHU216HW,2013-02-03 05:00:00,
2013-02-02 21:01:00,48.8,42.5,30.12,SE,135,0.0,0.4,79,0.00,,,0.00,WUHU216HW,2013-02-03 05:01:00,
2013-02-02 21:03:00,48.8,42.5,30.12,SE,135,0.0,0.2,79,0.00,,,0.00,WUHU216HW,2013-02-03 05:03:00,
2013-02-02 21:08:00,48.6,42.3,30.12,SE,135,0.0,0.4,79,0.00,,,0.00,WUHU216HW,2013-02-03 05:08:00,
2013-02-02 21:13:00,48.4,42.5,30.12,SE,135,0.0,0.4,80,0.00,,,0.00,WUHU216HW,2013-02-03 05:13:00,
2013-02-02 21:18:00,48.4,42.5,30.12,SE,135,0.0,0.2,80,0.00,,,0.00,WUHU216HW,2013-02-03 05:18:00,
2013-02-02 21:23:00,48.2,42.3,30.12,SE,135,0.0,0.2,80,0.00,,,0.00,WUHU216HW,2013-02-03 05:23:00,
2013-02-02 21:28:00,48.2,42.3,30.12,SE,135,0.0,0.0,80,0.00,,,0.00,WUHU216HW,2013-02-03 05:28:00,
2013-02-02 21:33:00,48.1,42.1,30.12,SE,135,0.0,0.0,80,0.00,,,0.00,WUHU216HW,2013-02-03 05:33:00,
2013-02-02 21:38:00,48.1,42.1,30.12,SE,135,0.0,0.0,80,0.00,,,0.00,WUHU216HW,2013-02-03 05:38:00,
2013-02-02 21:43:00,47.9,41.9,30.12,SE,135,0.0,0.0,80,0.00,,,0.00,WUHU216HW,2013-02-03 05:43:00,
2013-02-02 21:48:00,47.5,41.7,30.12,SE,135,0.0,0.4,80,0.00,,,0.00,WUHU216HW,2013-02-03 05:48:00,
2013-02-02 21:53:00,47.3,41.5,30.12,SE,135,0.0,0.4,80,0.00,,,0.00,WUHU216HW,2013-02-03 05:53:00,
2013-02-02 21:58:00,47.3,41.5,30.12,SE,135,0.0,0.0,80,0.00,,,0.00,WUHU216HW,2013-02-03 05:58:00,
2013-02-02 22:03:00,47.2,41.7,30.12,SE,135,0.0,0.0,81,0.00,,,0.00,WUHU216HW,2013-02-03 06:03:00,
2013-02-02 22:08:00,47.2,41.7,30.12,SE,135,0.4,0.4,81,0.00,,,0.00,WUHU216HW,2013-02-03 06:08:00,
2013-02-02 22:13:00,47.0,41.5,30.12,SE,135,0.2,0.4,81,0.00,,,0.00,WUHU216HW,2013-02-03 06:13:00,
2013-02-02 22:18:00,47.0,41.5,30.12,SE,135,0.0,0.4,81,0.00,,,0.00,WUHU216HW,2013-02-03 06:18:00,
2013-02-02 22:23:00,47.0,41.8,30.12,SE,135,0.0,0.2,82,0.00,,,0.00,WUHU216HW,2013-02-03 06:23:00,
2013-02-02 22:28:00,47.0,41.8,30.12,SE,135,0.0,0.4,82,0.00,,,0.00,WUHU216HW,2013-02-03 06:28:00,
2013-02-02 22:33:00,47.0,41.8,30.12,SE,135,0.2,0.7,82,0.00,,,0.00,WUHU216HW,2013-02-03 06:33:00,
2013-02-02 22:38:00,46.8,41.6,30.11,SE,135,0.4,0.7,82,0.00,,,0.00,WUHU216HW,2013-02-03 06:38:00,
2013-02-02 22:43:00,46.8,41.6,30.11,SE,135,0.0,0.7,82,0.00,,,0.00,WUHU216HW,2013-02-03 06:43:00,
2013-02-02 22:48:00,46.4,41.6,30.12,SE,135,0.0,0.7,83,0.00,,,0.00,WUHU216HW,2013-02-03 06:48:00,
2013-02-02 22:53:00,46.4,41.6,30.11,SE,135,0.0,0.0,83,0.00,,,0.00,WUHU216HW,2013-02-03 06:53:00,
2013-02-02 22:58:00,46.1,41.2,30.12,SE,135,0.0,0.0,83,0.00,,,0.00,WUHU216HW,2013-02-03 06:58:00,
2013-02-02 23:03:00,46.1,41.2,30.12,SE,135,0.0,0.0,83,0.00,,,0.00,WUHU216HW,2013-02-03 07:03:00,
2013-02-02 23:08:00,46.1,41.2,30.12,SE,135,0.0,0.7,83,0.00,,,0.00,WUHU216HW,2013-02-03 07:08:00,
2013-02-02 23:13:00,45.9,41.0,30.12,SE,135,0.0,0.7,83,0.00,,,0.00,WUHU216HW,2013-02-03 07:13:00,
2013-02-02 23:18:00,45.7,40.9,30.12,SE,135,0.0,0.2,83,0.00,,,0.00,WUHU216HW,2013-02-03 07:18:00,
2013-02-02 23:23:00,45.5,40.7,30.11,SE,135,0.4,0.7,83,0.00,,,0.00,WUHU216HW,2013-02-03 07:23:00,
2013-02-02 23:28:00,45.4,40.5,30.12,SE,135,0.0,0.7,83,0.00,,,0.00,WUHU216HW,2013-02-03 07:28:00,
2013-02-02 23:33:00,45.4,40.5,30.12,SE,135,0.0,0.4,83,0.00,,,0.00,WUHU216HW,2013-02-03 07:33:00,
2013-02-02 23:38:00,45.4,40.5,30.12,SE,135,0.0,0.0,83,0.00,,,0.00,WUHU216HW,2013-02-03 07:38:00,
2013-02-02 23:43:00,45.4,40.5,30.12,SE,135,0.0,0.4,83,0.00,,,0.00,WUHU216HW,2013-02-03 07:43:00,
2013-02-02 23:48:00,45.2,40.7,30.12,SE,135,0.4,0.7,84,0.00,,,0.00,WUHU216HW,2013-02-03 07:48:00,
2013-02-02 23:53:00,45.2,40.7,30.12,SE,135,0.4,0.7,84,0.00,,,0.00,WUHU216HW,2013-02-03 07:53:00,
2013-02-02 23:58:00,45.0,40.5,30.11,SE,135,0.7,0.7,84,0.00,,,0.00,WUHU216HW,2013-02-03 07:58:00,